sensor_id;sensor_type;location;lat;lon;timestamp;pressure;altitude;pressure_sealevel;temperature
57618;BMP280;43440;45.766;4.878;2022-07-06T00:00:06;100274.58341908675;;;22.37953728775333
57618;BMP280;43440;45.766;4.878;2022-07-06T00:01:03;100279.12584760424;;;22.311388271333954
57618;BMP280;43440;45.766;4.878;2022-07-06T00:02:04;100280.13721760592;;;22.30086746782099
57618;BMP280;43440;45.766;4.878;2022-07-06T00:03:03;100280.73686181172;;;22.36132242656909
57618;BMP280;43440;45.766;4.878;2022-07-06T00:04:04;100281.6693415628;;;22.360066147117095
57618;BMP280;43440;45.766;4.878;2022-07-06T00:05:04;100284.90070161926;;;22.321752033014626
57618;BMP280;43440;45.766;4.878;2022-07-06T00:06:03;100284.89512205828;;;22.252031793039848
57618;BMP280;43440;45.766;4.878;2022-07-06T00:07:03;100286.16491642308;;;22.227692316107824
57618;BMP280;43440;45.766;4.878;2022-07-06T00:08:04;100285.60670100157;;;22.305735330372364
57618;BMP280;43440;45.766;4.878;2022-07-06T00:09:05;100283.8026264849;;;22.339181909978198
57618;BMP280;43440;45.766;4.878;2022-07-06T00:10:04;100282.79689779252;;;22.37623977241374
57618;BMP280;43440;45.766;4.878;2022-07-06T00:11:03;100280.9304450338;;;22.39084298568573
57618;BMP280;43440;45.766;4.878;2022-07-06T00:12:04;100279.62564344356;;;22.33949594550777
57618;BMP280;43440;45.766;4.878;2022-07-06T00:13:03;100279.65728723568;;;22.335099226563578
57618;BMP280;43440;45.766;4.878;2022-07-06T00:14:03;100279.32102938853;;;22.32190901134145
57618;BMP280;43440;45.766;4.878;2022-07-06T00:15:04;100278.94821266094;;;22.245122479698647
57618;BMP280;43440;45.766;4.878;2022-07-06T00:16:04;100275.9640244044;;;22.157813612010205
57618;BMP280;43440;45.766;4.878;2022-07-06T00:17:04;100277.47423321553;;;22.090760336896892
57618;BMP280;43440;45.766;4.878;2022-07-06T00:18:03;100275.48206517167;;;22.040037923555747
57618;BMP280;43440;45.766;4.878;2022-07-06T00:19:04;100274.00012087415;;;22.01632537178775
57618;BMP280;43440;45.766;4.878;2022-07-06T00:20:04;100274.17969004122;;;22.00831646427082
57618;BMP280;43440;45.766;4.878;2022-07-06T00:21:03;100270.47849737598;;;22.080867121092112
57618;BMP280;43440;45.766;4.878;2022-07-06T00:22:03;100270.99702911351;;;22.163780804699627
57618;BMP280;43440;45.766;4.878;2022-07-06T00:23:03;100270.73816109817;;;22.12232411852178
57618;BMP280;43440;45.766;4.878;2022-07-06T00:24:04;100270.70601202537;;;22.086991542526356
57618;BMP280;43440;45.766;4.878;2022-07-06T00:25:05;100269.88456300055;;;22.143680697197443
57618;BMP280;43440;45.766;4.878;2022-07-06T00:26:03;100269.85860418552;;;22.055427360928434
57618;BMP280;43440;45.766;4.878;2022-07-06T00:27:04;100267.98981387647;;;21.978479181647117
57618;BMP280;43440;45.766;4.878;2022-07-06T00:28:04;100271.28975317524;;;21.92225904827733
57618;BMP280;43440;45.766;4.878;2022-07-06T00:29:03;100272.45623485553;;;21.919118213677894
57618;BMP280;43440;45.766;4.878;2022-07-06T00:30:04;100271.01822674715;;;21.948641766009814
57618;BMP280;43440;45.766;4.878;2022-07-06T00:31:03;100267.61612781363;;;21.916134400935974
57618;BMP280;43440;45.766;4.878;2022-07-06T00:32:04;100266.7150825732;;;21.84625068858072
57618;BMP280;43440;45.766;4.878;2022-07-06T00:33:03;100264.5232164392;;;21.85174718282651
57618;BMP280;43440;45.766;4.878;2022-07-06T00:34:03;100264.94759629597;;;21.93686376160167
57618;BMP280;43440;45.766;4.878;2022-07-06T00:35:04;100263.78604975996;;;22.009101648057367
57618;BMP280;43440;45.766;4.878;2022-07-06T00:36:04;100264.14814682139;;;22.05181552319327
57618;BMP280;43440;45.766;4.878;2022-07-06T00:37:03;100262.90438073668;;;22.128134441364363
57618;BMP280;43440;45.766;4.878;2022-07-06T00:38:04;100263.61687397075;;;22.092016657867315
57618;BMP280;43440;45.766;4.878;2022-07-06T00:39:03;100263.38839733302;;;22.05134439728713
57618;BMP280;43440;45.766;4.878;2022-07-06T00:40:04;100263.77021288301;;;21.910009766816394
57618;BMP280;43440;45.766;4.878;2022-07-06T00:41:03;100264.62605671292;;;21.85991343806154
57618;BMP280;43440;45.766;4.878;2022-07-06T00:42:04;100265.36455726357;;;21.819396210740067
57618;BMP280;43440;45.766;4.878;2022-07-06T00:43:03;100264.12834973569;;;21.774324164342715
57618;BMP280;43440;45.766;4.878;2022-07-06T00:44:07;100264.48565456634;;;21.71401816399716
57618;BMP280;43440;45.766;4.878;2022-07-06T00:45:04;100264.59560699745;;;21.71590273144552
57618;BMP280;43440;45.766;4.878;2022-07-06T00:46:03;100263.89653006416;;;21.66580402303189
57618;BMP280;43440;45.766;4.878;2022-07-06T00:47:04;100262.81035474892;;;21.603925993307257
57618;BMP280;43440;45.766;4.878;2022-07-06T00:48:04;100264.20791671328;;;21.622458083961828
57618;BMP280;43440;45.766;4.878;2022-07-06T00:49:04;100263.56762096948;;;21.59575925392546
57618;BMP280;43440;45.766;4.878;2022-07-06T00:50:04;100263.47191814755;;;21.622143921353107
57618;BMP280;43440;45.766;4.878;2022-07-06T00:51:04;100263.75590302405;;;21.666589346073444
57618;BMP280;43440;45.766;4.878;2022-07-06T00:52:04;100262.06321448598;;;21.589163043654388
57618;BMP280;43440;45.766;4.878;2022-07-06T00:53:05;100261.28479496049;;;21.57534235702333
57618;BMP280;43440;45.766;4.878;2022-07-06T00:54:04;100261.31296193412;;;21.56230697273145
57618;BMP280;43440;45.766;4.878;2022-07-06T00:55:04;100262.17765881431;;;21.61005094576135
57618;BMP280;43440;45.766;4.878;2022-07-06T00:56:04;100260.2498313897;;;21.634551026493455
57618;BMP280;43440;45.766;4.878;2022-07-06T00:57:04;100258.76371323343;;;21.719200705170444
57618;BMP280;43440;45.766;4.878;2022-07-06T00:58:04;100257.51776272357;;;21.712918763702966
57618;BMP280;43440;45.766;4.878;2022-07-06T00:59:03;100258.96622936579;;;21.713389971929743
57618;BMP280;43440;45.766;4.878;2022-07-06T01:00:04;100260.79271038863;;;21.726739022439503
57618;BMP280;43440;45.766;4.878;2022-07-06T01:01:04;100259.68055741767;;;21.723912185546034
57618;BMP280;43440;45.766;4.878;2022-07-06T01:02:04;100260.98728355023;;;21.67915332987136
57618;BMP280;43440;45.766;4.878;2022-07-06T01:03:03;100261.21630239516;;;21.73129340748178
57618;BMP280;43440;45.766;4.878;2022-07-06T01:04:04;100260.24145674448;;;21.70867852102178
57618;BMP280;43440;45.766;4.878;2022-07-06T01:05:05;100261.49171875305;;;21.739459862407738
57618;BMP280;43440;45.766;4.878;2022-07-06T01:06:03;100262.40174343123;;;21.750139047859328
57618;BMP280;43440;45.766;4.878;2022-07-06T01:07:04;100267.45733426909;;;21.737889414128357
57618;BMP280;43440;45.766;4.878;2022-07-06T01:08:04;100265.07155118995;;;21.709306552108636
57618;BMP280;43440;45.766;4.878;2022-07-06T01:09:04;100263.05232618518;;;21.634865161874178
57618;BMP280;43440;45.766;4.878;2022-07-06T01:10:04;100262.41355310347;;;21.64899973299048
57618;BMP280;43440;45.766;4.878;2022-07-06T01:11:03;100265.64122016967;;;21.698156269525043
57618;BMP280;43440;45.766;4.878;2022-07-06T01:12:04;100264.1613646129;;;21.659522057690175
57618;BMP280;43440;45.766;4.878;2022-07-06T01:13:03;100265.05856809054;;;21.611464457220976
57618;BMP280;43440;45.766;4.878;2022-07-06T01:14:03;100264.01201887113;;;21.588377804195396
57618;BMP280;43440;45.766;4.878;2022-07-06T01:15:05;100264.65028774744;;;21.640361859255606
57618;BMP280;43440;45.766;4.878;2022-07-06T01:16:03;100264.21201121232;;;21.575342286628437
57618;BMP280;43440;45.766;4.878;2022-07-06T01:17:04;100262.1227885809;;;21.57691292961927
57618;BMP280;43440;45.766;4.878;2022-07-06T01:18:04;100259.33732267492;;;21.52037338894861
57618;BMP280;43440;45.766;4.878;2022-07-06T01:19:03;100256.18911479357;;;21.43037988591709
57618;BMP280;43440;45.766;4.878;2022-07-06T01:20:08;100257.4834722216;;;21.415459293187723
57618;BMP280;43440;45.766;4.878;2022-07-06T01:21:12;100255.33603568427;;;21.3804350027372
57618;BMP280;43440;45.766;4.878;2022-07-06T01:22:03;100255.91535005413;;;21.31305557597643
57618;BMP280;43440;45.766;4.878;2022-07-06T01:23:04;100252.75835537071;;;21.301747059713215
57618;BMP280;43440;45.766;4.878;2022-07-06T01:24:03;100250.46290102172;;;21.36111656335843
57618;BMP280;43440;45.766;4.878;2022-07-06T01:25:05;100249.87826812867;;;21.39284273898729
57618;BMP280;43440;45.766;4.878;2022-07-06T01:26:04;100249.19722602027;;;21.391743301392445
57618;BMP280;43440;45.766;4.878;2022-07-06T01:27:04;100250.15672862624;;;21.311956175432123
57618;BMP280;43440;45.766;4.878;2022-07-06T01:28:04;100252.02404041713;;;21.28305652396698
57618;BMP280;43440;45.766;4.878;2022-07-06T01:29:03;100251.72581006568;;;21.34713811607594
57618;BMP280;43440;45.766;4.878;2022-07-06T01:30:05;100252.18021267699;;;21.303631874032543
57618;BMP280;43440;45.766;4.878;2022-07-06T01:31:03;100252.94469084243;;;21.275988668036277
57618;BMP280;43440;45.766;4.878;2022-07-06T01:32:04;100252.93745079983;;;21.19667061089835
57618;BMP280;43440;45.766;4.878;2022-07-06T01:33:03;100251.3971651528;;;21.16054506448886
57618;BMP280;43440;45.766;4.878;2022-07-06T01:34:03;100252.93091940806;;;21.10761278571499
57618;BMP280;43440;45.766;4.878;2022-07-06T01:35:06;100254.41024756414;;;21.0589207437788
57618;BMP280;43440;45.766;4.878;2022-07-06T01:36:04;100257.12464828079;;;20.996091536085714
57618;BMP280;43440;45.766;4.878;2022-07-06T01:37:04;100256.06931639883;;;20.981012417046806
57618;BMP280;43440;45.766;4.878;2022-07-06T01:38:04;100251.27327073686;;;20.975986028163152
57618;BMP280;43440;45.766;4.878;2022-07-06T01:39:03;100253.84529678752;;;20.99027981498598
57618;BMP280;43440;45.766;4.878;2022-07-06T01:40:05;100253.82779511472;;;20.955723316143075
57618;BMP280;43440;45.766;4.878;2022-07-06T01:41:05;100257.12974078915;;;20.9301199102606
57618;BMP280;43440;45.766;4.878;2022-07-06T01:42:04;100260.53943273594;;;20.931062378441673
57618;BMP280;43440;45.766;4.878;2022-07-06T01:43:03;100255.96546382157;;;20.946455816772506
57618;BMP280;43440;45.766;4.878;2022-07-06T01:44:04;100261.18414153832;;;20.982426089407408
57618;BMP280;43440;45.766;4.878;2022-07-06T01:45:05;100259.72296391462;;;21.01572577665297
57618;BMP280;43440;45.766;4.878;2022-07-06T01:46:03;100258.2814243097;;;21.042271122584317
57618;BMP280;43440;45.766;4.878;2022-07-06T01:47:04;100255.13320572367;;;21.03331794650744
57618;BMP280;43440;45.766;4.878;2022-07-06T01:48:05;100254.55940673604;;;21.027192131818268
57618;BMP280;43440;45.766;4.878;2022-07-06T01:49:05;100255.97580363917;;;21.061905102820084
57618;BMP280;43440;45.766;4.878;2022-07-06T01:50:07;100255.24700141777;;;21.14546648129012
57618;BMP280;43440;45.766;4.878;2022-07-06T01:51:04;100253.77962197467;;;21.11672280355806
57618;BMP280;43440;45.766;4.878;2022-07-06T01:52:04;100255.29771858644;;;21.10101579983821
57618;BMP280;43440;45.766;4.878;2022-07-06T01:53:04;100255.44314264176;;;21.027349182984246
57618;BMP280;43440;45.766;4.878;2022-07-06T01:54:03;100257.62838531515;;;20.986824180961
57618;BMP280;43440;45.766;4.878;2022-07-06T01:55:04;100257.50824002942;;;20.93608881134487
57618;BMP280;43440;45.766;4.878;2022-07-06T01:56:04;100255.91106768689;;;20.962163400624924
57618;BMP280;43440;45.766;4.878;2022-07-06T01:57:04;100255.40845714419;;;20.91346973437667
57618;BMP280;43440;45.766;4.878;2022-07-06T01:58:03;100256.02345930673;;;20.878598483754377
57618;BMP280;43440;45.766;4.878;2022-07-06T01:59:03;100260.1997057295;;;20.881740073132093
57618;BMP280;43440;45.766;4.878;2022-07-06T02:00:06;100259.1680832106;;;20.896662484680338
57618;BMP280;43440;45.766;4.878;2022-07-06T02:01:07;100263.01460219361;;;20.924622227975988
57618;BMP280;43440;45.766;4.878;2022-07-06T02:02:04;100256.35588935934;;;20.858963628448283
57618;BMP280;43440;45.766;4.878;2022-07-06T02:03:03;100263.17178039874;;;20.842470321706333
57618;BMP280;43440;45.766;4.878;2022-07-06T02:04:03;100264.21308545937;;;20.81843705411334
57618;BMP280;43440;45.766;4.878;2022-07-06T02:05:04;100269.8156552221;;;20.788120397421515
57618;BMP280;43440;45.766;4.878;2022-07-06T02:06:03;100268.58956973349;;;20.816080808047538
57618;BMP280;43440;45.766;4.878;2022-07-06T02:07:03;100267.61497562594;;;20.807284319065914
57618;BMP280;43440;45.766;4.878;2022-07-06T02:08:04;100268.06237892355;;;20.836658300132285
57618;BMP280;43440;45.766;4.878;2022-07-06T02:09:03;100266.18183909479;;;20.94001568069957
57618;BMP280;43440;45.766;4.878;2022-07-06T02:10:04;100266.33072556947;;;20.98462513843565
57618;BMP280;43440;45.766;4.878;2022-07-06T02:11:04;100263.4446160627;;;20.924622188435706
57618;BMP280;43440;45.766;4.878;2022-07-06T02:12:04;100260.72091394752;;;20.87718474108983
57618;BMP280;43440;45.766;4.878;2022-07-06T02:13:03;100258.31533834357;;;20.799744426824873
57618;BMP280;43440;45.766;4.878;2022-07-06T02:14:03;100255.13564451328;;;20.803200201503206
57618;BMP280;43440;45.766;4.878;2022-07-06T02:15:04;100256.16621376603;;;20.827861864844955
57618;BMP280;43440;45.766;4.878;2022-07-06T02:16:03;100252.4207854957;;;20.78623538885686
57618;BMP280;43440;45.766;4.878;2022-07-06T02:17:03;100253.3039626526;;;20.812782101781476
57618;BMP280;43440;45.766;4.878;2022-07-06T02:18:03;100254.93523471491;;;20.877027715276018
57618;BMP280;43440;45.766;4.878;2022-07-06T02:19:04;100254.38165079446;;;20.86587510054337
57618;BMP280;43440;45.766;4.878;2022-07-06T02:20:04;100254.83260632325;;;20.79314698905428
57618;BMP280;43440;45.766;4.878;2022-07-06T02:21:04;100260.01978819937;;;20.787020827120024
57618;BMP280;43440;45.766;4.878;2022-07-06T02:22:03;100257.72038001085;;;20.82503443662076
57618;BMP280;43440;45.766;4.878;2022-07-06T02:23:03;100262.47500741883;;;20.7626730292096
57618;BMP280;43440;45.766;4.878;2022-07-06T02:24:04;100260.9397641998;;;20.683031461869675
57618;BMP280;43440;45.766;4.878;2022-07-06T02:25:04;100262.31113734013;;;20.664652397673763
57618;BMP280;43440;45.766;4.878;2022-07-06T02:26:03;100261.41051760949;;;20.7733545653753
57618;BMP280;43440;45.766;4.878;2022-07-06T02:27:04;100262.40301434681;;;20.811525464056785
57618;BMP280;43440;45.766;4.878;2022-07-06T02:28:03;100264.60922557255;;;20.74994938165396
57618;BMP280;43440;45.766;4.878;2022-07-06T02:29:04;100266.19395827857;;;20.83681540030866
57618;BMP280;43440;45.766;4.878;2022-07-06T02:30:04;100264.32070787178;;;20.910956509267816
57618;BMP280;43440;45.766;4.878;2022-07-06T02:31:04;100264.17071346237;;;20.922580213924718
57618;BMP280;43440;45.766;4.878;2022-07-06T02:32:04;100268.29348217775;;;20.955252060122348
57618;BMP280;43440;45.766;4.878;2022-07-06T02:33:04;100266.73440566132;;;20.838700312864784
57618;BMP280;43440;45.766;4.878;2022-07-06T02:34:03;100271.06606305133;;;20.813096312059088
57618;BMP280;43440;45.766;4.878;2022-07-06T02:35:04;100269.73601739592;;;20.735968923990278
57618;BMP280;43440;45.766;4.878;2022-07-06T02:36:03;100268.65445071737;;;20.6599398105227
57618;BMP280;43440;45.766;4.878;2022-07-06T02:37:04;100269.72274112985;;;20.56615828175286
57618;BMP280;43440;45.766;4.878;2022-07-06T02:38:03;100271.55808835593;;;20.58642280646409
57618;BMP280;43440;45.766;4.878;2022-07-06T02:39:03;100269.95776773346;;;20.58893620593444
57618;BMP280;43440;45.766;4.878;2022-07-06T02:40:05;100273.31836202998;;;20.65664103000777
57618;BMP280;43440;45.766;4.878;2022-07-06T02:41:03;100274.30405615015;;;20.635120141079643
57618;BMP280;43440;45.766;4.878;2022-07-06T02:42:03;100270.21517485673;;;20.703609499605776
57618;BMP280;43440;45.766;4.878;2022-07-06T02:43:03;100271.04180411233;;;20.786549516256763
57618;BMP280;43440;45.766;4.878;2022-07-06T02:44:04;100269.08349204189;;;20.77979503390266
57618;BMP280;43440;45.766;4.878;2022-07-06T02:45:04;100266.84259527417;;;20.721831372232465
57618;BMP280;43440;45.766;4.878;2022-07-06T02:46:04;100267.98778205596;;;20.71570513792517
57618;BMP280;43440;45.766;4.878;2022-07-06T02:47:03;100269.3753500985;;;20.650985898232605
57618;BMP280;43440;45.766;4.878;2022-07-06T02:48:04;100267.49563468862;;;20.55531902648827
57618;BMP280;43440;45.766;4.878;2022-07-06T02:49:03;100269.51155687553;;;20.470175403012764
57618;BMP280;43440;45.766;4.878;2022-07-06T02:50:04;100268.63267292845;;;20.434515124022028
57618;BMP280;43440;45.766;4.878;2022-07-06T02:51:03;100271.69056564607;;;20.5425946714367
57618;BMP280;43440;45.766;4.878;2022-07-06T02:52:04;100272.21774329025;;;20.558146707154084
57618;BMP280;43440;45.766;4.878;2022-07-06T02:53:03;100273.29211456406;;;20.54180932513482
57618;BMP280;43440;45.766;4.878;2022-07-06T02:54:04;100272.30032268535;;;20.479600988918083
57618;BMP280;43440;45.766;4.878;2022-07-06T02:55:04;100271.48771034501;;;20.448967756239245
57618;BMP280;43440;45.766;4.878;2022-07-06T02:56:04;100268.73004885908;;;20.49075457558224
57618;BMP280;43440;45.766;4.878;2022-07-06T02:57:04;100269.79377300748;;;20.481800280428978
57618;BMP280;43440;45.766;4.878;2022-07-06T02:58:03;100272.749241916;;;20.569142977295815
57618;BMP280;43440;45.766;4.878;2022-07-06T02:59:04;100273.02279837016;;;20.580139250018235
57618;BMP280;43440;45.766;4.878;2022-07-06T03:00:04;100271.67737407399;;;20.600403726469402
57618;BMP280;43440;45.766;4.878;2022-07-06T03:01:06;100273.18556534649;;;20.556575789200267
57618;BMP280;43440;45.766;4.878;2022-07-06T03:02:04;100271.58686184233;;;20.518716884653394
57618;BMP280;43440;45.766;4.878;2022-07-06T03:03:03;100272.19027505245;;;20.458236311408108
57618;BMP280;43440;45.766;4.878;2022-07-06T03:04:04;100272.2151289451;;;20.399954185912748
57618;BMP280;43440;45.766;4.878;2022-07-06T03:05:04;100273.62342156495;;;20.363507836662347
57618;BMP280;43440;45.766;4.878;2022-07-06T03:06:04;100273.48884900271;;;20.351725541144514
57618;BMP280;43440;45.766;4.878;2022-07-06T03:07:03;100275.4677983709;;;20.433101148469994
57618;BMP280;43440;45.766;4.878;2022-07-06T03:08:04;100274.53947709012;;;20.52719985294766
57618;BMP280;43440;45.766;4.878;2022-07-06T03:09:04;100274.82071660137;;;20.506149601413334
57618;BMP280;43440;45.766;4.878;2022-07-06T03:10:04;100277.81769737435;;;20.619568395445597
57618;BMP280;43440;45.766;4.878;2022-07-06T03:11:03;100273.96121177029;;;20.682717303842537
57618;BMP280;43440;45.766;4.878;2022-07-06T03:12:04;100277.9972443927;;;20.698739969836925
57618;BMP280;43440;45.766;4.878;2022-07-06T03:13:04;100279.66025737178;;;20.65020044888497
57618;BMP280;43440;45.766;4.878;2022-07-06T03:14:03;100278.27113683766;;;20.575583672582933
57618;BMP280;43440;45.766;4.878;2022-07-06T03:15:04;100281.19382689722;;;20.533169298409984
57618;BMP280;43440;45.766;4.878;2022-07-06T03:16:03;100281.21792113502;;;20.523586746785714
57618;BMP280;43440;45.766;4.878;2022-07-06T03:17:04;100281.91454184585;;;20.578097038822627
57618;BMP280;43440;45.766;4.878;2022-07-06T03:18:03;100280.78428781503;;;20.582024300055856
57618;BMP280;43440;45.766;4.878;2022-07-06T03:19:03;100280.45125222087;;;20.49154001318602
57618;BMP280;43440;45.766;4.878;2022-07-06T03:20:04;100283.72311180468;;;20.488712381860296
57618;BMP280;43440;45.766;4.878;2022-07-06T03:21:03;100285.69436394685;;;20.49154004592783
57618;BMP280;43440;45.766;4.878;2022-07-06T03:22:03;100285.25929569299;;;20.474888115571776
57618;BMP280;43440;45.766;4.878;2022-07-06T03:23:04;100282.6897747311;;;20.446297130479707
57618;BMP280;43440;45.766;4.878;2022-07-06T03:24:04;100285.99295721119;;;20.51416121334687
57618;BMP280;43440;45.766;4.878;2022-07-06T03:25:03;100286.36466020602;;;20.50976266623875
57618;BMP280;43440;45.766;4.878;2022-07-06T03:26:04;100284.83180810693;;;20.497823665719988
57618;BMP280;43440;45.766;4.878;2022-07-06T03:27:04;100285.31891218404;;;20.521701674749693
57618;BMP280;43440;45.766;4.878;2022-07-06T03:28:04;100284.8111854487;;;20.595691067570577
57618;BMP280;43440;45.766;4.878;2022-07-06T03:29:03;100286.1357462168;;;20.59019296182523
57618;BMP280;43440;45.766;4.878;2022-07-06T03:30:04;100284.40571225013;;;20.564901559695272
57618;BMP280;43440;45.766;4.878;2022-07-06T03:31:03;100282.89169874904;;;20.474574007009778
57618;BMP280;43440;45.766;4.878;2022-07-06T03:32:04;100283.27675551448;;;20.48745564019173
57618;BMP280;43440;45.766;4.878;2022-07-06T03:33:03;100286.5466161539;;;20.502379408774278
57618;BMP280;43440;45.766;4.878;2022-07-06T03:34:03;100284.09495661905;;;20.47457398409051
57618;BMP280;43440;45.766;4.878;2022-07-06T03:35:04;100283.46220460364;;;20.41534954484628
57618;BMP280;43440;45.766;4.878;2022-07-06T03:36:04;100282.53627169515;;;20.489969056214886
57618;BMP280;43440;45.766;4.878;2022-07-06T03:37:04;100281.71769206224;;;20.462163571811423
57618;BMP280;43440;45.766;4.878;2022-07-06T03:38:03;100284.03602245872;;;20.42948807242369
57618;BMP280;43440;45.766;4.878;2022-07-06T03:39:03;100284.36561488686;;;20.46090688188174
57618;BMP280;43440;45.766;4.878;2022-07-06T03:40:04;100287.61476140653;;;20.519816512912442
57618;BMP280;43440;45.766;4.878;2022-07-06T03:41:03;100286.93509310717;;;20.530184581687173
57618;BMP280;43440;45.766;4.878;2022-07-06T03:42:04;100284.07819029111;;;20.483057009273672
57618;BMP280;43440;45.766;4.878;2022-07-06T03:43:03;100284.86757700019;;;20.44362653656385
57618;BMP280;43440;45.766;4.878;2022-07-06T03:44:03;100289.15823353377;;;20.368534917591887
57618;BMP280;43440;45.766;4.878;2022-07-06T03:45:04;100287.56912374185;;;20.273176054076156
57618;BMP280;43440;45.766;4.878;2022-07-06T03:46:03;100286.32498575049;;;20.2797742071416
57618;BMP280;43440;45.766;4.878;2022-07-06T03:47:04;100285.22607047803;;;20.328003754219527
57618;BMP280;43440;45.766;4.878;2022-07-06T03:48:04;100283.56766887566;;;20.34387065776782
57618;BMP280;43440;45.766;4.878;2022-07-06T03:49:03;100283.99729705247;;;20.343870642727055
57618;BMP280;43440;45.766;4.878;2022-07-06T03:50:08;100281.39002490879;;;20.33680124504367
57618;BMP280;43440;45.766;4.878;2022-07-06T03:51:04;100281.39526992339;;;20.296741071141877
57618;BMP280;43440;45.766;4.878;2022-07-06T03:52:03;100282.81813413568;;;20.316535551665858
57618;BMP280;43440;45.766;4.878;2022-07-06T03:53:03;100282.40220152636;;;20.28684377766308
57618;BMP280;43440;45.766;4.878;2022-07-06T03:54:03;100281.30625356383;;;20.32077721098735
57618;BMP280;43440;45.766;4.878;2022-07-06T03:55:05;100280.57278261219;;;20.312450991975037
57618;BMP280;43440;45.766;4.878;2022-07-06T03:56:04;100280.12631541847;;;20.348426467590386
57618;BMP280;43440;45.766;4.878;2022-07-06T03:57:04;100280.46147763278;;;20.33805803997452
57618;BMP280;43440;45.766;4.878;2022-07-06T03:58:03;100274.72217384173;;;20.341042882116653
57618;BMP280;43440;45.766;4.878;2022-07-06T03:59:03;100276.26467906818;;;20.335858668348507
57618;BMP280;43440;45.766;4.878;2022-07-06T04:00:05;100279.4129018735;;;20.364293318603995
57618;BMP280;43440;45.766;4.878;2022-07-06T04:01:03;100275.66171136741;;;20.334130577561062
57618;BMP280;43440;45.766;4.878;2022-07-06T04:02:03;100277.66283117632;;;20.326275677904412
57618;BMP280;43440;45.766;4.878;2022-07-06T04:03:04;100277.65847840281;;;20.321091423857023
57618;BMP280;43440;45.766;4.878;2022-07-06T04:04:03;100281.1565934006;;;20.366178487455727
57618;BMP280;43440;45.766;4.878;2022-07-06T04:05:04;100278.68682046057;;;20.413307257093948
57618;BMP280;43440;45.766;4.878;2022-07-06T04:06:03;100279.01194072269;;;20.45902175393453
57618;BMP280;43440;45.766;4.878;2022-07-06T04:07:03;100278.63698524245;;;20.409536999346436
57618;BMP280;43440;45.766;4.878;2022-07-06T04:08:04;100279.27797451743;;;20.342770942026753
57618;BMP280;43440;45.766;4.878;2022-07-06T04:09:05;100279.62502943195;;;20.318734930147183
57618;BMP280;43440;45.766;4.878;2022-07-06T04:10:05;100281.4193031177;;;20.306638317906753
57618;BMP280;43440;45.766;4.878;2022-07-06T04:11:04;100279.28690101019;;;20.288414793899165
57618;BMP280;43440;45.766;4.878;2022-07-06T04:12:04;100282.44583119005;;;20.273961593429657
57618;BMP280;43440;45.766;4.878;2022-07-06T04:13:03;100279.44224401328;;;20.324390455847244
57618;BMP280;43440;45.766;4.878;2022-07-06T04:14:04;100279.48889738256;;;20.352196836102983
57618;BMP280;43440;45.766;4.878;2022-07-06T04:15:04;100281.49463700416;;;20.359266215971637
57618;BMP280;43440;45.766;4.878;2022-07-06T04:16:04;100283.40726411213;;;20.357695217504805
57618;BMP280;43440;45.766;4.878;2022-07-06T04:17:04;100281.69666291727;;;20.348583572018654
57618;BMP280;43440;45.766;4.878;2022-07-06T04:18:04;100282.83282356158;;;20.400268379751243
57618;BMP280;43440;45.766;4.878;2022-07-06T04:19:03;100280.74811787793;;;20.40183934817064
57618;BMP280;43440;45.766;4.878;2022-07-06T04:20:04;100286.27406616659;;;20.48337123294359